ěÝzenÝ letovÚho provozu ╚eskÚ republiky
Letiste: LKNA Aktualizace: 24.09.2020 17:30:25  UTC
 METAR LKNA 24.09. 17:30 ...
METAR LKNA 241730Z 20003KT 080V250 CAVOK 18/11 Q1009 NOSIG RMK BLU BLU=
 TAF LKNA 24.09. 11:00 ...
TAF LKNA 241100Z 2412/2512 19008KT CAVOK      TEMPO 2412/2417 9999 SCT030      PROB30 TEMPO 2412/2417 SHRA BKN030TCU      BECMG 2418/2420 16010KT      BECMG 2500/2503 15012KT BKN014      TEMPO 2504/2512 4000 RA BKN006=